AirNav   Everest Fuels
 
 621 users online  

0GA3 Ayresouth Airport
Temple, Georgia, USA

GOING TO TEMPLE?


FAA INFORMATION EFFECTIVE 21 MAY 2020

Location

FAA Identifier: 0GA3
Lat/Long: 33-46-12.3810N 085-03-38.8050W
33-46.206350N 085-03.646750W
33.7701058,-85.0607792
(estimated)
Elevation: 1287 ft. / 392 m (estimated)
Variation: 01W (1985)
From city: 3 miles NW of TEMPLE, GA
Time zone: UTC -4 (UTC -5 during Standard Time)
Zip code: 30179

Airport Operations

Airport use: Private use. Permission required prior to landing
Activation date: 11/1989
Control tower: no
ARTCC: ATLANTA CENTER
FSS: MACON FLIGHT SERVICE STATION
Attendance: UNATNDD
Wind indicator: yes
Segmented circle: no

Airport Communications

WX AWOS-3 at CTJ (9 nm SW): 118.175 (770-214-9667)
WX AWOS-3 at PUJ (10 nm NE): 126.225 (770-445-3870)

Nearby radio navigation aids

VOR radial/distance  VOR name  Freq  Var
RMGr172/23.7ROME VORTAC115.4001E
ATLr290/32.4ATLANTA VORTAC116.9005W
PDKr266/38.5PEACHTREE VOR/DME116.6005W

 
NDB name  Hdg/Dist  Freq  Var  ID
CARROLLTON020/12.827804WGPQ --. .--. --.-
CARTERSVILLE207/27.930804WEVZ . ...- --..
COWETA COUNTY334/35.423403WEQQ . --.- --.-

Airport Services

Runway Information

Runway 18/36

Dimensions: 2000 x 100 ft. / 610 x 30 m
Surface: turf
RUNWAY 18  RUNWAY 36
Traffic pattern: leftleft

Airport Ownership and Management from official FAA records

Ownership: Privately-owned
Owner: STEVEN D. AYRES
3600 BANKHEAD HWY
LITHIA SPRINGS, GA 30122
Phone 770-948-1238
Manager: STEVEN D. AYRES
3600 BANKHEAD HWY
LITHIA SPRINS, GA 30122
Phone 404-514-4077

Airport Operational Statistics

Aircraft based on the field: 11
Single engine airplanes: 6
Ultralights: 5
    

Additional Remarks

FOR CD CTC ATLANTA APCH AT 678-364-6131.

Instrument Procedures

There are no published instrument procedures at 0GA3.

Some nearby airports with instrument procedures:

KCTJ - West Georgia Regional Airport-O V Gray Field (9 nm SW)
KPUJ - Paulding Northwest Atlanta Airport (10 nm NE)
4A4 - Polk County Airport - Cornelius Moore Field (16 nm N)
KVPC - Cartersville Airport (24 nm NE)
KFTY - Fulton County Airport-Brown Field (27 nm E)
 
Loc | Ops | Rwys | IFR | FBO | Links
Com | Nav | Svcs | Stats | Notes
Area around 0GA3 (Ayresouth Airport)
 
Road maps at: MapQuest Bing Google
 
Aerial photo
No photo
 
Sectional chart

 
Airport distance calculator
Flying to Ayresouth Airport? Find the distance to fly.

From to 0GA3

Sunrise and sunset
Times for 03-Jun-2020
 Local
(UTC-4)
 Zulu
(UTC)
Morning civil twilight06:0210:02
Sunrise06:3110:31
Sunset20:4600:46
Evening civil twilight21:1501:15

Current date and time
Zulu (UTC)  03-Jun-2020 04:44:29
Local (UTC-4)  03-Jun-2020 00:44:29
 
METAR
KCTJ 
9nm SW 
030435Z AUTO 00000KT 10SM CLR 19/18 A3017 RMK AO2 T01910177
KPUJ 
10nm NE 
030435Z AUTO 00000KT 10SM CLR 21/17 A3013 RMK AO2
TAF
KFTY 
27nm E 
021726Z 0218/0318 22006KT P6SM SCT050 SCT250 FM030100 21003KT P6SM FEW150 SCT250 FM031100 26005KT P6SM SCT040 SCT250 FM031600 27006KT P6SM SCT050 BKN250
KRYY 
27nm NE 
021726Z 0218/0318 21008KT P6SM SCT050 SCT250 FM030100 22003KT P6SM FEW150 SCT250 FM031100 26005KT P6SM SCT040 SCT250 FM031600 27006KT P6SM SCT050 BKN250
KMGE 
29nm E 
022100Z 0221/0403 VRB05KT 9999 BKN050 BKN250 QNH3010INS BECMG 0302/0303 VRB05KT 9999 SCT250 QNH3005INS BECMG 0314/0315 27009KT 9999 BKN040 BKN250 QNH2994INS TX31/0321Z TN19/0311Z
KATL 
32nm E 
030334Z 0304/0406 20004KT P6SM FEW150 SCT250 FM031100 24004KT P6SM SCT040 SCT250 FM031500 26006KT P6SM SCT050 BKN250 FM031700 24007KT P6SM VCSH BKN050 BKN250 FM040100 23005KT P6SM SCT050 BKN150
NOTAMs
Click for the latest NOTAMs
NOTAMs are issued by the DoD/FAA and will open in a separate window not controlled by AirNav.

 

 
 

Would you like to see your business listed on this page?

 If your business provides an interesting product or service to pilots, flight crews, aircraft, or users of the Ayresouth Airport, you should consider listing it here.  To start the listing process, click on the button below
 
Add a business
 

Other Pages about Ayresouth Airport

Update a link
 
Copyright © AirNav, LLC. All rights reserved. Privacy Policy  Contact